createdAt,value
2022-07-30T00:00:48.865Z,1012.14
2022-07-30T00:01:48.831Z,1012.16
2022-07-30T00:02:48.830Z,1012.19
2022-07-30T00:03:48.880Z,1012.16
2022-07-30T00:04:48.836Z,1012.14
2022-07-30T00:05:48.839Z,1012.17
2022-07-30T00:06:48.840Z,1012.16
2022-07-30T00:07:48.841Z,1012.11
2022-07-30T00:08:48.846Z,1012.13
2022-07-30T00:09:48.849Z,1012.09
2022-07-30T00:10:48.848Z,1012.06
2022-07-30T00:11:48.869Z,1012.06
2022-07-30T00:12:48.858Z,1012.06
2022-07-30T00:13:48.856Z,1012.05
2022-07-30T00:14:48.861Z,1012.05
2022-07-30T00:15:48.863Z,1012.07
2022-07-30T00:16:48.916Z,1012.05
2022-07-30T00:17:49.235Z,1012.07
2022-07-30T00:18:48.868Z,1012.10
2022-07-30T00:19:48.873Z,1012.07
2022-07-30T00:20:48.879Z,1012.12
2022-07-30T00:21:48.878Z,1012.11
2022-07-30T00:22:48.879Z,1012.10
2022-07-30T00:23:51.181Z,1012.11
2022-07-30T00:24:48.885Z,1012.10
2022-07-30T00:25:48.889Z,1012.08
2022-07-30T00:26:48.892Z,1012.11
2022-07-30T00:27:48.891Z,1012.06
2022-07-30T00:28:48.890Z,1012.10
2022-07-30T00:29:48.898Z,1012.07
2022-07-30T00:30:48.961Z,1012.12
2022-07-30T00:31:48.902Z,1012.10
2022-07-30T00:32:48.903Z,1012.13
2022-07-30T00:33:48.907Z,1012.11
2022-07-30T00:34:48.905Z,1012.10
2022-07-30T00:35:48.909Z,1012.07
2022-07-30T00:36:48.914Z,1012.06
2022-07-30T00:37:48.918Z,1012.05
2022-07-30T00:38:48.926Z,1012.07
2022-07-30T00:39:48.922Z,1012.07
2022-07-30T00:40:48.920Z,1012.08
2022-07-30T00:41:48.927Z,1012.03
2022-07-30T00:42:48.929Z,1012.05
2022-07-30T00:43:48.931Z,1012.04
2022-07-30T00:44:48.934Z,1012.11
2022-07-30T00:45:48.946Z,1012.10
2022-07-30T00:46:48.938Z,1012.08
2022-07-30T00:47:48.947Z,1012.07
2022-07-30T00:48:48.960Z,1012.10
2022-07-30T00:49:48.948Z,1012.07
2022-07-30T00:50:48.944Z,1012.08
2022-07-30T00:51:48.949Z,1012.06
2022-07-30T00:52:48.958Z,1012.06
2022-07-30T00:53:48.956Z,1012.00
2022-07-30T00:54:48.955Z,1012.03
2022-07-30T00:55:48.961Z,1011.98
2022-07-30T00:56:48.967Z,1011.98
2022-07-30T00:57:48.965Z,1011.96
2022-07-30T00:58:48.966Z,1011.97
2022-07-30T00:59:48.972Z,1011.93
2022-07-30T01:00:49.037Z,1011.92
2022-07-30T01:01:49.028Z,1011.99
2022-07-30T01:02:48.977Z,1011.99
2022-07-30T01:03:48.987Z,1011.97
2022-07-30T01:04:48.979Z,1012.02
2022-07-30T01:05:48.985Z,1012.02
2022-07-30T01:06:48.982Z,1012.00
2022-07-30T01:07:48.988Z,1012.03
2022-07-30T01:08:48.990Z,1011.99
2022-07-30T01:09:48.990Z,1011.98
2022-07-30T01:10:48.991Z,1011.96
2022-07-30T01:11:48.998Z,1011.95
2022-07-30T01:12:49.001Z,1011.95
2022-07-30T01:13:48.999Z,1011.89
2022-07-30T01:14:49.005Z,1011.91
2022-07-30T01:15:49.002Z,1011.90
2022-07-30T01:16:49.096Z,1011.91
2022-07-30T01:17:49.856Z,1011.94
2022-07-30T01:18:49.014Z,1011.89
2022-07-30T01:19:49.019Z,1011.90
2022-07-30T01:20:49.015Z,1011.87
2022-07-30T01:21:49.028Z,1011.93
2022-07-30T01:22:49.029Z,1011.94
2022-07-30T01:23:49.025Z,1011.95
2022-07-30T01:24:49.028Z,1011.95
2022-07-30T01:25:49.033Z,1011.97
2022-07-30T01:26:49.027Z,1011.97
2022-07-30T01:27:49.039Z,1011.95
2022-07-30T01:28:49.038Z,1011.92
2022-07-30T01:29:49.040Z,1011.95
2022-07-30T01:30:50.118Z,1011.93
2022-07-30T01:31:49.122Z,1011.97
2022-07-30T01:32:49.050Z,1011.93
2022-07-30T01:33:49.048Z,1011.95
2022-07-30T01:34:49.050Z,1011.92
2022-07-30T01:35:49.054Z,1011.93
2022-07-30T01:36:49.056Z,1011.94
2022-07-30T01:37:49.057Z,1011.92
2022-07-30T01:38:49.059Z,1011.90
2022-07-30T01:39:49.063Z,1011.94
2022-07-30T01:40:49.067Z,1011.88
2022-07-30T01:41:49.069Z,1011.86
2022-07-30T01:42:49.070Z,1011.84
2022-07-30T01:43:49.074Z,1011.86
2022-07-30T01:44:49.072Z,1011.83
2022-07-30T01:45:49.102Z,1011.85
2022-07-30T01:46:49.076Z,1011.84
2022-07-30T01:47:49.080Z,1011.86
2022-07-30T01:48:49.137Z,1011.81
2022-07-30T01:49:49.084Z,1011.81
2022-07-30T01:50:49.089Z,1011.82
2022-07-30T01:51:49.087Z,1011.78
2022-07-30T01:52:49.202Z,1011.81
2022-07-30T01:53:49.095Z,1011.79
2022-07-30T01:54:49.097Z,1011.75
2022-07-30T01:55:49.098Z,1011.81
2022-07-30T01:56:49.096Z,1011.82
2022-07-30T01:57:49.105Z,1011.79
2022-07-30T01:58:49.108Z,1011.78
2022-07-30T01:59:49.109Z,1011.75
2022-07-30T02:00:49.185Z,1011.77
2022-07-30T02:01:49.119Z,1011.75
2022-07-30T02:02:49.114Z,1011.78
2022-07-30T02:03:49.165Z,1011.78
2022-07-30T02:04:49.118Z,1011.79
2022-07-30T02:05:49.123Z,1011.79
2022-07-30T02:06:49.122Z,1011.80
2022-07-30T02:07:49.128Z,1011.86
2022-07-30T02:08:49.126Z,1011.83
2022-07-30T02:09:49.132Z,1011.85
2022-07-30T02:10:49.129Z,1011.82
2022-07-30T02:11:49.141Z,1011.81
2022-07-30T02:12:49.137Z,1011.81
2022-07-30T02:13:49.139Z,1011.82
2022-07-30T02:14:49.138Z,1011.83
2022-07-30T02:15:49.154Z,1011.84
2022-07-30T02:16:49.184Z,1011.85
2022-07-30T02:17:49.150Z,1011.83
2022-07-30T02:18:49.150Z,1011.86
2022-07-30T02:19:49.156Z,1011.86
2022-07-30T02:20:49.501Z,1011.80
2022-07-30T02:21:50.691Z,1011.80
2022-07-30T02:22:49.163Z,1011.80
2022-07-30T02:23:49.163Z,1011.82
2022-07-30T02:24:49.167Z,1011.84
2022-07-30T02:25:49.174Z,1011.79
2022-07-30T02:26:49.167Z,1011.81
2022-07-30T02:27:49.171Z,1011.80
2022-07-30T02:28:49.170Z,1011.79
2022-07-30T02:29:49.177Z,1011.82
2022-07-30T02:30:49.177Z,1011.80
2022-07-30T02:31:49.255Z,1011.82
2022-07-30T02:32:49.178Z,1011.80
2022-07-30T02:33:49.257Z,1011.78
2022-07-30T02:34:49.184Z,1011.81
2022-07-30T02:35:49.192Z,1011.77
2022-07-30T02:36:49.189Z,1011.80
2022-07-30T02:37:49.190Z,1011.78
2022-07-30T02:38:49.193Z,1011.77
2022-07-30T02:39:49.195Z,1011.77
2022-07-30T02:40:49.199Z,1011.76
2022-07-30T02:41:49.994Z,1011.75
2022-07-30T02:42:49.209Z,1011.73
2022-07-30T02:43:49.207Z,1011.73
2022-07-30T02:44:49.212Z,1011.72
2022-07-30T02:45:49.210Z,1011.70
2022-07-30T02:46:49.278Z,1011.74
2022-07-30T02:47:49.210Z,1011.68
2022-07-30T02:48:49.259Z,1011.72
2022-07-30T02:49:49.218Z,1011.68
2022-07-30T02:50:49.224Z,1011.65
2022-07-30T02:51:49.223Z,1011.68
2022-07-30T02:52:49.226Z,1011.67
2022-07-30T02:53:51.793Z,1011.69
2022-07-30T02:54:49.237Z,1011.63
2022-07-30T02:55:49.235Z,1011.64
2022-07-30T02:56:49.236Z,1011.60
2022-07-30T02:57:49.235Z,1011.62
2022-07-30T02:58:49.240Z,1011.58
2022-07-30T02:59:49.241Z,1011.61
2022-07-30T03:00:49.306Z,1011.60
2022-07-30T03:01:49.336Z,1011.60
2022-07-30T03:02:49.248Z,1011.58
2022-07-30T03:03:49.254Z,1011.59
2022-07-30T03:04:49.252Z,1011.56
2022-07-30T03:05:49.258Z,1011.56
2022-07-30T03:06:49.255Z,1011.59
2022-07-30T03:07:49.255Z,1011.56
2022-07-30T03:08:49.259Z,1011.57
2022-07-30T03:09:52.383Z,1011.55
2022-07-30T03:10:49.263Z,1011.61
2022-07-30T03:11:49.268Z,1011.57
2022-07-30T03:12:49.271Z,1011.58
2022-07-30T03:13:49.272Z,1011.62
2022-07-30T03:14:49.277Z,1011.57
2022-07-30T03:15:49.322Z,1011.56
2022-07-30T03:16:49.278Z,1011.58
2022-07-30T03:17:49.279Z,1011.57
2022-07-30T03:18:49.278Z,1011.59
2022-07-30T03:19:49.280Z,1011.59
2022-07-30T03:20:49.285Z,1011.60
2022-07-30T03:21:49.288Z,1011.63
2022-07-30T03:22:49.293Z,1011.58
2022-07-30T03:23:49.287Z,1011.62
2022-07-30T03:24:49.295Z,1011.59
2022-07-30T03:25:49.297Z,1011.62
2022-07-30T03:26:49.299Z,1011.65
2022-07-30T03:27:49.295Z,1011.64
2022-07-30T03:28:49.306Z,1011.64
2022-07-30T03:29:49.304Z,1011.66
2022-07-30T03:30:49.307Z,1011.67
2022-07-30T03:31:49.334Z,1011.70
2022-07-30T03:32:49.312Z,1011.73
2022-07-30T03:33:49.312Z,1011.71
2022-07-30T03:34:49.316Z,1011.68
2022-07-30T03:35:49.317Z,1011.69
2022-07-30T03:36:49.319Z,1011.68
2022-07-30T03:37:49.319Z,1011.70
2022-07-30T03:38:49.320Z,1011.70
2022-07-30T03:39:49.325Z,1011.70
2022-07-30T03:40:49.327Z,1011.72
2022-07-30T03:41:49.330Z,1011.72
2022-07-30T03:42:49.333Z,1011.71
2022-07-30T03:43:49.331Z,1011.70
2022-07-30T03:44:49.336Z,1011.76
2022-07-30T03:45:49.338Z,1011.74
2022-07-30T03:46:49.452Z,1011.73
2022-07-30T03:47:49.346Z,1011.72
2022-07-30T03:48:49.451Z,1011.71
2022-07-30T03:49:49.348Z,1011.72
2022-07-30T03:50:49.348Z,1011.73
2022-07-30T03:51:49.349Z,1011.73
2022-07-30T03:52:49.351Z,1011.72
2022-07-30T03:53:49.353Z,1011.73
2022-07-30T03:54:49.354Z,1011.74
2022-07-30T03:55:49.356Z,1011.75
2022-07-30T03:56:49.361Z,1011.76
2022-07-30T03:57:49.364Z,1011.77
2022-07-30T03:58:49.362Z,1011.74
2022-07-30T03:59:49.365Z,1011.78
2022-07-30T04:00:49.368Z,1011.76
2022-07-30T04:01:49.430Z,1011.74
2022-07-30T04:02:49.372Z,1011.78
2022-07-30T04:03:49.404Z,1011.78
2022-07-30T04:04:49.377Z,1011.79
2022-07-30T04:05:49.377Z,1011.82
2022-07-30T04:06:49.384Z,1011.80
2022-07-30T04:07:49.382Z,1011.80
2022-07-30T04:08:49.383Z,1011.82
2022-07-30T04:09:49.386Z,1011.84
2022-07-30T04:10:49.392Z,1011.82
2022-07-30T04:11:49.386Z,1011.85
2022-07-30T04:12:49.394Z,1011.80
2022-07-30T04:13:49.399Z,1011.80
2022-07-30T04:14:49.398Z,1011.83
2022-07-30T04:16:37.911Z,1011.85
2022-07-30T04:16:40.170Z,1011.83
2022-07-30T04:17:34.066Z,1011.85
2022-07-30T04:18:33.992Z,1011.86
2022-07-30T04:19:33.997Z,1011.86
2022-07-30T04:20:33.994Z,1011.88
2022-07-30T04:21:33.996Z,1011.93
2022-07-30T04:22:34.004Z,1011.97
2022-07-30T04:23:33.996Z,1011.99
2022-07-30T04:24:34.003Z,1011.93
2022-07-30T04:25:34.005Z,1012.00
2022-07-30T04:26:34.006Z,1011.99
2022-07-30T04:27:34.006Z,1012.00
2022-07-30T04:28:34.011Z,1012.01
2022-07-30T04:29:34.018Z,1012.01
2022-07-30T04:30:34.013Z,1012.07
2022-07-30T04:31:34.076Z,1012.05
2022-07-30T04:32:34.018Z,1012.11
2022-07-30T04:33:34.022Z,1012.11
2022-07-30T04:34:34.025Z,1012.13
2022-07-30T04:35:51.538Z,1012.13
2022-07-30T04:36:34.029Z,1012.12
2022-07-30T04:37:34.027Z,1012.13
2022-07-30T04:38:34.036Z,1012.12
2022-07-30T04:39:34.034Z,1012.15
2022-07-30T04:40:34.037Z,1012.16
2022-07-30T04:41:48.217Z,1012.16
2022-07-30T04:42:34.045Z,1012.17
2022-07-30T04:43:34.045Z,1012.15
2022-07-30T04:44:34.043Z,1012.12
2022-07-30T04:45:34.053Z,1012.15
2022-07-30T04:46:34.125Z,1012.15
2022-07-30T04:47:34.259Z,1012.16
2022-07-30T04:48:34.051Z,1012.20
2022-07-30T04:49:34.054Z,1012.18
2022-07-30T04:50:34.059Z,1012.17
2022-07-30T04:51:34.062Z,1012.18
2022-07-30T04:52:34.060Z,1012.17
2022-07-30T04:53:34.058Z,1012.15
2022-07-30T04:54:34.067Z,1012.16
2022-07-30T04:55:34.068Z,1012.16
2022-07-30T04:56:34.071Z,1012.16
2022-07-30T04:57:34.067Z,1012.19
2022-07-30T04:58:34.082Z,1012.18
2022-07-30T04:59:34.074Z,1012.17
2022-07-30T05:00:37.693Z,1012.17
2022-07-30T05:01:40.455Z,1012.20
2022-07-30T05:02:34.082Z,1012.20
2022-07-30T05:03:34.084Z,1012.21
2022-07-30T05:04:34.083Z,1012.20
2022-07-30T05:05:34.136Z,1012.17
2022-07-30T05:06:34.090Z,1012.24
2022-07-30T05:07:34.092Z,1012.24
2022-07-30T05:08:34.100Z,1012.26
2022-07-30T05:09:34.095Z,1012.25
2022-07-30T05:10:34.101Z,1012.25
2022-07-30T05:11:34.101Z,1012.27
2022-07-30T05:12:34.104Z,1012.22
2022-07-30T05:13:38.412Z,1012.20
2022-07-30T05:14:34.110Z,1012.22
2022-07-30T05:15:37.411Z,1012.21
2022-07-30T05:16:34.125Z,1012.21
2022-07-30T05:17:34.117Z,1012.19
2022-07-30T05:18:34.120Z,1012.23
2022-07-30T05:19:34.117Z,1012.19
2022-07-30T05:20:34.126Z,1012.21
2022-07-30T05:21:34.127Z,1012.23
2022-07-30T05:22:34.129Z,1012.17
2022-07-30T05:23:34.125Z,1012.17
2022-07-30T05:24:34.129Z,1012.17
2022-07-30T05:25:34.133Z,1012.19
2022-07-30T05:26:34.137Z,1012.21
2022-07-30T05:27:34.134Z,1012.22
2022-07-30T05:28:34.145Z,1012.16
2022-07-30T05:29:34.150Z,1012.18
2022-07-30T05:30:34.146Z,1012.14
2022-07-30T05:31:34.209Z,1012.12
2022-07-30T05:32:34.150Z,1012.13
2022-07-30T05:33:38.820Z,1012.18
2022-07-30T05:34:34.154Z,1012.13
2022-07-30T05:35:34.154Z,1012.18
2022-07-30T05:36:34.157Z,1012.16
2022-07-30T05:37:34.157Z,1012.18
2022-07-30T05:38:34.167Z,1012.19
2022-07-30T05:39:34.166Z,1012.25
2022-07-30T05:40:34.166Z,1012.26
2022-07-30T05:41:34.169Z,1012.26
2022-07-30T05:42:34.180Z,1012.19
2022-07-30T05:43:34.176Z,1012.20
2022-07-30T05:44:34.179Z,1012.22
2022-07-30T05:48:00.045Z,1012.15
2022-07-30T05:49:00.118Z,1012.19
2022-07-30T05:50:04.367Z,1012.21
2022-07-30T05:51:00.041Z,1012.23
2022-07-30T05:52:00.048Z,1012.25
2022-07-30T05:53:00.063Z,1012.25
2022-07-30T05:54:00.053Z,1012.26
2022-07-30T05:55:00.070Z,1012.23
2022-07-30T05:56:00.065Z,1012.28
2022-07-30T05:57:00.257Z,1012.23
2022-07-30T05:58:00.071Z,1012.27
2022-07-30T05:59:00.073Z,1012.28
2022-07-30T06:00:00.086Z,1012.29
2022-07-30T06:01:00.069Z,1012.30
2022-07-30T06:02:00.155Z,1012.32
2022-07-30T06:03:00.071Z,1012.32
2022-07-30T06:04:00.215Z,1012.36
2022-07-30T06:05:00.217Z,1012.35
2022-07-30T06:06:00.087Z,1012.39
2022-07-30T06:07:00.324Z,1012.36
2022-07-30T06:08:00.087Z,1012.37
2022-07-30T06:09:00.087Z,1012.37
2022-07-30T06:10:00.218Z,1012.38
2022-07-30T06:11:00.094Z,1012.39
2022-07-30T06:12:00.115Z,1012.42
2022-07-30T06:13:00.099Z,1012.44
2022-07-30T06:14:00.100Z,1012.44
2022-07-30T06:15:00.110Z,1012.45
2022-07-30T06:16:00.204Z,1012.51
2022-07-30T06:17:00.418Z,1012.50
2022-07-30T06:18:01.890Z,1012.48
2022-07-30T06:19:00.111Z,1012.49
2022-07-30T06:20:00.166Z,1012.48
2022-07-30T06:21:00.118Z,1012.51
2022-07-30T06:22:05.460Z,1012.48
2022-07-30T06:23:00.124Z,1012.53
2022-07-30T06:24:00.131Z,1012.56
2022-07-30T06:25:00.131Z,1012.56
2022-07-30T06:26:00.136Z,1012.58
2022-07-30T06:27:00.381Z,1012.58
2022-07-30T06:28:10.693Z,1012.63
2022-07-30T06:29:00.136Z,1012.58
2022-07-30T06:30:00.171Z,1012.60
2022-07-30T06:31:00.292Z,1012.60
2022-07-30T06:32:00.157Z,1012.59
2022-07-30T06:33:00.158Z,1012.58
2022-07-30T06:34:00.156Z,1012.63
2022-07-30T06:35:04.539Z,1012.65
2022-07-30T06:36:00.161Z,1012.66
2022-07-30T06:37:00.312Z,1012.68
2022-07-30T06:38:06.760Z,1012.68
2022-07-30T06:39:00.171Z,1012.66
2022-07-30T06:40:00.171Z,1012.73
2022-07-30T06:41:02.657Z,1012.74
2022-07-30T06:42:00.187Z,1012.72
2022-07-30T06:43:00.193Z,1012.73
2022-07-30T06:44:00.191Z,1012.75
2022-07-30T06:45:00.188Z,1012.77
2022-07-30T06:46:00.308Z,1012.77
2022-07-30T06:47:05.266Z,1012.75
2022-07-30T06:48:00.195Z,1012.73
2022-07-30T06:49:00.273Z,1012.74
2022-07-30T06:50:00.213Z,1012.74
2022-07-30T06:51:00.207Z,1012.78
2022-07-30T06:52:00.212Z,1012.77
2022-07-30T06:53:00.206Z,1012.76
2022-07-30T06:54:00.213Z,1012.77
2022-07-30T06:55:00.246Z,1012.81
2022-07-30T06:56:00.685Z,1012.81
2022-07-30T06:57:00.566Z,1012.83
2022-07-30T06:58:00.227Z,1012.82
2022-07-30T06:59:00.229Z,1012.88
2022-07-30T07:00:00.244Z,1012.88
2022-07-30T07:01:00.289Z,1012.83
2022-07-30T07:02:00.241Z,1012.88
2022-07-30T07:03:00.248Z,1012.90
2022-07-30T07:04:00.323Z,1012.91
2022-07-30T07:05:00.251Z,1012.92
2022-07-30T07:06:00.258Z,1012.89
2022-07-30T07:07:00.473Z,1012.91
2022-07-30T07:08:00.260Z,1012.96
2022-07-30T07:09:00.264Z,1012.92
2022-07-30T07:10:00.268Z,1012.97
2022-07-30T07:11:00.271Z,1012.98
2022-07-30T07:12:00.276Z,1012.97
2022-07-30T07:13:00.274Z,1012.97
2022-07-30T07:14:04.338Z,1013.00
2022-07-30T07:15:00.282Z,1012.98
2022-07-30T07:16:00.288Z,1012.98
2022-07-30T07:17:00.853Z,1012.99
2022-07-30T07:18:00.590Z,1012.99
2022-07-30T07:19:00.299Z,1012.95
2022-07-30T07:20:02.625Z,1013.00
2022-07-30T07:21:00.306Z,1013.01
2022-07-30T07:22:00.314Z,1013.02
2022-07-30T07:23:01.624Z,1012.98
2022-07-30T07:24:00.317Z,1012.98
2022-07-30T07:25:00.317Z,1012.98
2022-07-30T07:26:00.327Z,1012.94
2022-07-30T07:27:00.553Z,1012.95
2022-07-30T07:28:11.700Z,1012.98
2022-07-30T07:29:04.989Z,1012.95
2022-07-30T07:30:01.455Z,1012.95
2022-07-30T07:31:00.403Z,1012.97
2022-07-30T07:32:06.919Z,1012.96
2022-07-30T07:33:00.351Z,1012.90
2022-07-30T07:34:00.359Z,1012.88
2022-07-30T07:35:00.367Z,1012.93
2022-07-30T07:36:00.363Z,1012.94
2022-07-30T07:37:00.626Z,1012.94
2022-07-30T07:38:00.371Z,1012.92
2022-07-30T07:39:00.377Z,1012.93
2022-07-30T07:40:00.383Z,1012.98
2022-07-30T07:41:00.390Z,1012.96
2022-07-30T07:42:00.389Z,1012.97
2022-07-30T07:43:00.397Z,1013.02
2022-07-30T07:44:00.405Z,1013.02
2022-07-30T07:45:00.397Z,1013.03
2022-07-30T07:46:00.451Z,1013.09
2022-07-30T07:47:00.795Z,1013.14
2022-07-30T07:48:00.412Z,1013.11
2022-07-30T07:49:00.449Z,1013.16
2022-07-30T07:50:00.423Z,1013.20
2022-07-30T07:51:00.922Z,1013.24
2022-07-30T07:52:00.434Z,1013.35
2022-07-30T07:53:00.437Z,1013.51
2022-07-30T07:54:20.535Z,1013.72
2022-07-30T07:55:00.443Z,1013.80
2022-07-30T07:56:00.452Z,1014.06
2022-07-30T07:57:02.463Z,1014.34
2022-07-30T07:58:00.466Z,1014.59
2022-07-30T07:59:00.464Z,1014.75
2022-07-30T08:00:00.468Z,1015.23
2022-07-30T08:01:00.510Z,1015.46
2022-07-30T08:02:00.503Z,1015.42
2022-07-30T08:03:00.483Z,1015.35
2022-07-30T08:04:00.486Z,1015.23
2022-07-30T08:05:00.491Z,1015.03
2022-07-30T08:06:06.010Z,1015.15
2022-07-30T08:07:00.756Z,1014.72
2022-07-30T08:08:00.512Z,1014.88
2022-07-30T08:09:00.514Z,1014.96
2022-07-30T08:10:00.526Z,1014.98
2022-07-30T08:11:00.523Z,1014.69
2022-07-30T08:12:00.531Z,1014.39
2022-07-30T08:13:00.538Z,1014.25
2022-07-30T08:14:00.543Z,1014.03
2022-07-30T08:15:00.559Z,1014.14
2022-07-30T08:16:00.553Z,1014.30
2022-07-30T08:17:01.106Z,1014.33
2022-07-30T08:18:00.567Z,1014.20
2022-07-30T08:19:00.573Z,1015.10
2022-07-30T08:20:00.579Z,1015.02
2022-07-30T08:21:00.580Z,1014.99
2022-07-30T08:22:00.587Z,1014.63
2022-07-30T08:23:00.594Z,1014.46
2022-07-30T08:24:00.600Z,1014.40
2022-07-30T08:25:00.611Z,1015.11
2022-07-30T08:26:00.615Z,1015.12
2022-07-30T08:27:01.028Z,1015.03
2022-07-30T08:28:00.633Z,1014.41
2022-07-30T08:29:00.635Z,1014.40
2022-07-30T08:30:00.643Z,1014.39
2022-07-30T08:31:02.504Z,1014.52
2022-07-30T08:32:01.010Z,1014.05
2022-07-30T08:33:00.663Z,1014.16
2022-07-30T08:34:00.686Z,1014.81
2022-07-30T08:35:00.681Z,1014.69
2022-07-30T08:36:04.277Z,1014.26
2022-07-30T08:37:00.693Z,1013.90
2022-07-30T08:38:00.704Z,1014.04
2022-07-30T08:39:00.717Z,1013.88
2022-07-30T08:40:00.717Z,1013.89
2022-07-30T08:41:00.727Z,1013.79
2022-07-30T08:42:01.182Z,1013.70
2022-07-30T08:43:00.746Z,1013.65
2022-07-30T08:44:00.752Z,1013.63
2022-07-30T08:45:00.762Z,1013.60
2022-07-30T08:46:00.773Z,1013.63
2022-07-30T08:47:01.084Z,1013.57
2022-07-30T08:48:00.790Z,1013.56
2022-07-30T08:49:05.399Z,1013.53
2022-07-30T08:50:00.805Z,1013.53
2022-07-30T08:51:00.812Z,1013.54
2022-07-30T08:52:01.168Z,1013.58
2022-07-30T08:53:00.831Z,1013.65
2022-07-30T08:54:00.841Z,1013.63
2022-07-30T08:55:00.851Z,1013.60
2022-07-30T08:56:00.859Z,1013.60
2022-07-30T08:57:00.869Z,1013.56
2022-07-30T08:58:00.962Z,1013.53
2022-07-30T08:59:00.889Z,1013.50
2022-07-30T09:00:01.879Z,1013.57
2022-07-30T09:01:00.914Z,1013.60
2022-07-30T09:02:01.232Z,1013.61
2022-07-30T09:03:01.020Z,1013.65
2022-07-30T09:04:00.978Z,1013.60
2022-07-30T09:05:00.946Z,1013.73
2022-07-30T09:06:00.957Z,1013.70
2022-07-30T09:07:01.268Z,1013.69
2022-07-30T09:08:01.875Z,1013.65
2022-07-30T09:09:00.991Z,1013.75
2022-07-30T09:10:00.996Z,1013.75
2022-07-30T09:11:01.004Z,1013.62
2022-07-30T09:12:01.020Z,1013.65
2022-07-30T09:13:01.027Z,1013.65
2022-07-30T09:14:02.362Z,1013.65
2022-07-30T09:15:01.044Z,1013.54
2022-07-30T09:16:01.059Z,1013.56
2022-07-30T09:17:01.388Z,1013.44
2022-07-30T09:18:01.080Z,1013.44
2022-07-30T09:19:01.101Z,1013.46
2022-07-30T09:20:01.105Z,1013.49
2022-07-30T09:21:01.116Z,1013.46
2022-07-30T09:22:01.125Z,1013.43
2022-07-30T09:23:01.142Z,1013.49
2022-07-30T09:24:01.150Z,1013.47
2022-07-30T09:25:01.161Z,1013.59
2022-07-30T09:26:01.172Z,1013.54
2022-07-30T09:27:01.563Z,1013.48
2022-07-30T09:28:01.194Z,1013.48
2022-07-30T09:29:01.205Z,1013.61
2022-07-30T09:30:01.221Z,1013.65
2022-07-30T09:31:01.229Z,1013.58
2022-07-30T09:32:01.740Z,1013.51
2022-07-30T09:33:01.254Z,1013.76
2022-07-30T09:34:01.265Z,1013.71
2022-07-30T09:35:01.274Z,1013.68
2022-07-30T09:36:01.290Z,1013.80
2022-07-30T09:37:01.297Z,1013.65
2022-07-30T09:38:06.000Z,1013.59
2022-07-30T09:39:01.328Z,1013.57
2022-07-30T09:40:01.338Z,1013.50
2022-07-30T09:41:08.133Z,1013.55
2022-07-30T09:42:01.656Z,1013.56
2022-07-30T09:43:01.375Z,1013.47
2022-07-30T09:44:01.393Z,1013.51
2022-07-30T09:45:01.418Z,1013.53
2022-07-30T09:46:01.419Z,1013.53
2022-07-30T09:47:01.430Z,1013.46
2022-07-30T09:48:01.449Z,1013.46
2022-07-30T09:49:01.516Z,1013.43
2022-07-30T09:50:07.074Z,1013.46
2022-07-30T09:51:01.488Z,1013.44
2022-07-30T09:52:01.649Z,1013.54
2022-07-30T09:53:01.509Z,1013.49
2022-07-30T09:54:01.571Z,1013.37
2022-07-30T09:55:01.544Z,1013.42
2022-07-30T09:56:01.554Z,1013.46
2022-07-30T09:57:01.977Z,1013.39
2022-07-30T09:58:01.682Z,1013.34
2022-07-30T09:59:01.597Z,1013.35
2022-07-30T10:00:01.767Z,1013.37
2022-07-30T10:01:01.625Z,1013.36
2022-07-30T10:02:04.074Z,1013.33
2022-07-30T10:03:12.642Z,1013.25
2022-07-30T10:04:01.663Z,1013.17
2022-07-30T10:05:01.677Z,1013.16
2022-07-30T10:06:03.006Z,1013.13
2022-07-30T10:07:01.708Z,1013.11
2022-07-30T10:08:06.651Z,1013.14
2022-07-30T10:09:01.731Z,1013.08
2022-07-30T10:10:01.746Z,1013.11
2022-07-30T10:11:08.585Z,1013.17
2022-07-30T10:12:02.474Z,1013.15
2022-07-30T10:13:04.261Z,1013.12
2022-07-30T10:14:01.797Z,1013.11
2022-07-30T10:15:01.818Z,1013.12
2022-07-30T10:16:01.825Z,1013.11
2022-07-30T10:17:02.871Z,1013.13
2022-07-30T10:18:01.852Z,1013.12
2022-07-30T10:19:01.868Z,1013.14
2022-07-30T10:20:02.896Z,1013.12
2022-07-30T10:21:01.891Z,1013.14
2022-07-30T10:22:02.197Z,1013.10
2022-07-30T10:23:08.283Z,1013.19
2022-07-30T10:24:01.927Z,1013.20
2022-07-30T10:25:01.938Z,1013.22
2022-07-30T10:26:03.707Z,1013.27
2022-07-30T10:27:02.401Z,1013.30
2022-07-30T10:28:03.142Z,1013.28
2022-07-30T10:29:02.052Z,1013.36
2022-07-30T10:30:03.475Z,1013.35
2022-07-30T10:31:02.010Z,1013.37
2022-07-30T10:32:02.023Z,1013.26
2022-07-30T10:33:02.039Z,1013.23
2022-07-30T10:34:02.050Z,1013.29
2022-07-30T10:35:02.062Z,1013.26
2022-07-30T10:36:02.708Z,1013.28
2022-07-30T10:37:04.549Z,1013.31
2022-07-30T10:38:02.092Z,1013.29
2022-07-30T10:39:02.107Z,1013.32
2022-07-30T10:40:02.964Z,1013.30
2022-07-30T10:41:02.134Z,1013.24
2022-07-30T10:42:02.138Z,1013.28
2022-07-30T10:43:02.154Z,1013.28
2022-07-30T10:44:02.164Z,1013.31
2022-07-30T10:45:02.177Z,1013.31
2022-07-30T10:46:02.814Z,1013.31
2022-07-30T10:47:07.015Z,1013.22
2022-07-30T10:48:02.211Z,1013.22
2022-07-30T10:49:02.271Z,1013.19
2022-07-30T10:50:02.232Z,1013.22
2022-07-30T10:51:02.250Z,1013.28
2022-07-30T10:52:02.263Z,1013.29
2022-07-30T10:53:02.269Z,1013.30
2022-07-30T10:54:02.288Z,1013.33
2022-07-30T10:55:02.293Z,1013.35
2022-07-30T10:56:02.304Z,1013.38
2022-07-30T10:57:02.680Z,1013.36
2022-07-30T10:58:02.327Z,1013.32
2022-07-30T10:59:02.852Z,1013.33
2022-07-30T11:00:04.088Z,1013.34
2022-07-30T11:01:02.364Z,1013.31
2022-07-30T11:02:02.919Z,1013.25
2022-07-30T11:03:02.385Z,1013.25
2022-07-30T11:04:02.398Z,1013.23
2022-07-30T11:05:02.409Z,1013.24
2022-07-30T11:06:02.419Z,1013.21
2022-07-30T11:07:02.429Z,1013.23
2022-07-30T11:08:02.447Z,1013.27
2022-07-30T11:09:02.457Z,1013.31
2022-07-30T11:10:09.022Z,1013.28
2022-07-30T11:11:16.205Z,1013.28
2022-07-30T11:12:06.483Z,1013.30
2022-07-30T11:13:02.499Z,1013.23
2022-07-30T11:14:02.512Z,1013.24
2022-07-30T11:15:06.856Z,1013.23
2022-07-30T11:16:02.541Z,1013.20
2022-07-30T11:17:02.546Z,1013.15
2022-07-30T11:18:02.559Z,1013.23
2022-07-30T11:19:27.441Z,1013.18
2022-07-30T11:20:02.584Z,1013.18
2022-07-30T11:21:02.595Z,1013.15
2022-07-30T11:22:03.054Z,1013.14
2022-07-30T11:23:02.617Z,1013.12
2022-07-30T11:24:02.627Z,1013.13
2022-07-30T11:25:12.488Z,1013.15
2022-07-30T11:26:02.650Z,1013.08
2022-07-30T11:27:02.682Z,1013.13
2022-07-30T11:28:02.675Z,1013.13
2022-07-30T11:29:02.684Z,1013.13
2022-07-30T11:30:02.697Z,1013.18
2022-07-30T11:31:09.923Z,1013.20
2022-07-30T11:32:06.782Z,1013.20
2022-07-30T11:33:02.738Z,1013.18
2022-07-30T11:34:02.745Z,1013.18
2022-07-30T11:35:02.754Z,1013.20
2022-07-30T11:36:02.768Z,1013.18
2022-07-30T11:37:02.779Z,1013.19
2022-07-30T11:38:02.790Z,1013.19
2022-07-30T11:39:06.857Z,1013.17
2022-07-30T11:40:02.814Z,1013.15
2022-07-30T11:41:02.825Z,1013.14
2022-07-30T11:42:03.411Z,1013.16
2022-07-30T11:43:02.848Z,1013.13
2022-07-30T11:44:02.855Z,1013.21
2022-07-30T11:45:04.202Z,1013.20
2022-07-30T11:46:02.881Z,1013.22
2022-07-30T11:47:02.888Z,1013.22
2022-07-30T11:48:02.903Z,1013.22
2022-07-30T11:49:03.054Z,1013.21
2022-07-30T11:50:02.922Z,1013.20
2022-07-30T11:51:04.100Z,1013.17
2022-07-30T11:52:03.367Z,1013.16
2022-07-30T11:53:02.967Z,1013.14
2022-07-30T11:54:02.964Z,1013.16
2022-07-30T11:55:02.975Z,1013.14
2022-07-30T11:56:02.992Z,1013.18
2022-07-30T11:57:04.748Z,1013.24
2022-07-30T11:58:03.013Z,1013.19
2022-07-30T11:59:03.029Z,1013.19
2022-07-30T12:00:03.037Z,1013.16
2022-07-30T12:01:03.043Z,1013.20
2022-07-30T12:02:03.381Z,1013.13
2022-07-30T12:03:04.311Z,1013.16
2022-07-30T12:04:03.075Z,1013.18
2022-07-30T12:05:03.091Z,1013.22
2022-07-30T12:06:03.101Z,1013.20
2022-07-30T12:07:03.456Z,1013.18
2022-07-30T12:08:03.125Z,1013.21